Time;durP1;ratioP1;P1;durP2;ratioP2;P2;SDS_P1;SDS_P2;PMS_P1;PMS_P2;Temp;Humidity;BMP_temperature;BMP_pressure;BME280_temperature;BME280_humidity;BME280_pressure;Samples;Min_cycle;Max_cycle;Signal;HPM_P1;HPM_P2
2022/05/07 00:01:31;;;;;;;20.13;17.00;;;13.90;99.90;;;;;;5096370;28;20051;-65
2022/05/07 00:03:56;;;;;;;21.83;18.20;;;13.80;99.90;;;;;;5096423;28;20372;-65
2022/05/07 00:06:22;;;;;;;26.45;17.75;;;13.70;99.90;;;;;;5096414;28;20040;-65
2022/05/07 00:08:48;;;;;;;20.33;17.75;;;13.70;99.90;;;;;;5095959;28;20039;-65
2022/05/07 00:11:15;;;;;;;20.45;17.88;;;13.70;99.90;;;;;;5096429;28;20046;-65
2022/05/07 00:13:41;;;;;;;21.75;16.85;;;13.70;99.90;;;;;;5096481;28;20126;-66
2022/05/07 00:18:51;;;;;;;19.27;17.17;;;13.80;99.90;;;;;;5096223;28;20472;-65
2022/05/07 00:21:17;;;;;;;20.38;18.10;;;13.70;99.90;;;;;;5100594;28;20122;-65
2022/05/07 00:23:42;;;;;;;21.63;17.33;;;13.60;99.90;;;;;;5100526;28;20070;-65
2022/05/07 00:26:08;;;;;;;21.40;16.90;;;13.70;99.90;;;;;;5100469;28;20475;-65
2022/05/07 00:28:35;;;;;;;20.65;17.27;;;13.60;99.90;;;;;;5118251;28;20044;-65
2022/05/07 00:31:01;;;;;;;19.95;17.02;;;13.50;99.90;;;;;;5100341;28;20047;-65
2022/05/07 00:33:27;;;;;;;22.63;17.55;;;13.50;99.90;;;;;;5100141;28;20058;-65
2022/05/07 00:35:52;;;;;;;19.08;16.83;;;13.50;99.90;;;;;;5099962;28;20108;-65
2022/05/07 00:38:18;;;;;;;19.55;16.63;;;13.50;99.90;;;;;;5100696;28;20036;-65
2022/05/07 00:40:44;;;;;;;21.10;16.48;;;13.50;99.90;;;;;;5100042;28;20452;-65
2022/05/07 00:43:15;;;;;;;20.67;17.23;;;13.50;99.90;;;;;;5083367;28;20051;-65
2022/05/07 00:45:44;;;;;;;19.10;17.02;;;13.50;99.90;;;;;;5100113;28;20058;-66
2022/05/07 00:48:11;;;;;;;22.08;16.30;;;13.40;99.90;;;;;;5117700;28;20446;-65
2022/05/07 00:53:22;;;;;;;21.63;17.23;;;13.40;99.90;;;;;;5100261;28;20119;-65
2022/05/07 00:55:50;;;;;;;20.27;16.52;;;13.30;99.90;;;;;;5079851;28;20348;-65
2022/05/07 00:58:16;;;;;;;19.80;17.42;;;13.40;99.90;;;;;;5063312;28;20431;-65
2022/05/07 01:00:44;;;;;;;20.85;16.83;;;13.40;99.90;;;;;;5079484;28;20060;-65
2022/05/07 01:03:10;;;;;;;21.38;17.70;;;13.40;99.90;;;;;;5079421;28;20050;-65
2022/05/07 01:05:36;;;;;;;20.40;17.00;;;13.40;99.90;;;;;;5082241;28;20418;-65
2022/05/07 01:08:02;;;;;;;21.95;17.08;;;13.40;99.90;;;;;;5099668;28;20040;-65
2022/05/07 01:10:28;;;;;;;19.08;16.17;;;13.40;99.90;;;;;;5099563;28;20075;-65
2022/05/07 01:12:55;;;;;;;23.17;17.63;;;13.40;99.90;;;;;;5099680;28;20032;-65
2022/05/07 01:15:20;;;;;;;19.80;16.40;;;13.40;99.90;;;;;;5099487;28;20044;-65
2022/05/07 01:17:46;;;;;;;20.48;17.55;;;13.40;99.90;;;;;;5117348;28;20055;-65
2022/05/07 01:20:13;;;;;;;22.92;17.23;;;13.40;99.90;;;;;;5099522;28;20352;-65
2022/05/07 01:22:41;;;;;;;20.00;17.70;;;13.40;99.90;;;;;;5099425;28;20039;-65
2022/05/07 01:25:07;;;;;;;19.20;17.20;;;13.50;99.90;;;;;;5099183;28;20060;-65
2022/05/07 01:27:33;;;;;;;20.50;17.55;;;13.50;99.90;;;;;;5098990;28;20043;-65
2022/05/07 01:29:59;;;;;;;21.67;17.90;;;13.50;99.90;;;;;;5098782;28;20184;-65
2022/05/07 01:32:24;;;;;;;21.90;17.42;;;13.50;99.90;;;;;;5099371;28;20028;-65
2022/05/07 01:34:53;;;;;;;21.35;17.83;;;13.50;99.90;;;;;;5099128;28;20519;-64
2022/05/07 01:37:19;;;;;;;22.38;18.42;;;13.50;99.90;;;;;;5082709;28;20039;-64
2022/05/07 01:39:45;;;;;;;21.30;18.40;;;13.50;99.90;;;;;;5116707;28;20345;-65
2022/05/07 01:42:10;;;;;;;22.70;18.17;;;13.50;99.90;;;;;;5117181;28;20096;-65
2022/05/07 01:44:36;;;;;;;20.08;17.83;;;13.50;99.90;;;;;;5099356;28;20035;-65
2022/05/07 01:49:47;;;;;;;21.15;17.90;;;13.50;99.90;;;;;;5116468;28;20350;-65
2022/05/07 01:52:13;;;;;;;21.17;17.88;;;13.50;99.90;;;;;;5099039;28;20430;-66
2022/05/07 01:54:39;;;;;;;21.35;17.33;;;13.60;99.90;;;;;;5099111;28;20131;-65
2022/05/07 01:57:05;;;;;;;22.10;18.13;;;13.60;99.90;;;;;;5098580;28;20745;-65
2022/05/07 01:59:31;;;;;;;20.23;18.02;;;13.50;99.90;;;;;;5081515;28;20116;-65
2022/05/07 02:01:56;;;;;;;22.55;17.95;;;13.50;99.90;;;;;;5081672;28;20046;-65
2022/05/07 02:04:22;;;;;;;21.92;18.50;;;13.50;99.90;;;;;;5098722;28;20120;-65
2022/05/07 02:06:48;;;;;;;22.38;18.75;;;13.40;99.90;;;;;;5098596;28;20448;-66
2022/05/07 02:09:13;;;;;;;22.25;19.20;;;13.50;99.90;;;;;;5098450;28;20371;-66
2022/05/07 02:11:39;;;;;;;22.23;18.42;;;13.50;99.90;;;;;;5098501;28;20523;-66
2022/05/07 02:14:05;;;;;;;22.33;17.95;;;13.40;99.90;;;;;;5098659;28;20051;-66
2022/05/07 02:16:31;;;;;;;23.33;19.08;;;13.40;99.90;;;;;;5089269;28;20433;-65
2022/05/07 02:18:57;;;;;;;21.05;18.85;;;13.40;99.90;;;;;;5077404;28;20081;-65
2022/05/07 02:21:22;;;;;;;22.80;19.23;;;13.40;99.90;;;;;;5077463;28;20040;-66
2022/05/07 02:23:48;;;;;;;23.80;19.02;;;13.40;99.90;;;;;;5077170;28;20055;-66
2022/05/07 02:26:14;;;;;;;24.20;18.67;;;13.30;99.90;;;;;;5079535;28;20040;-66
2022/05/07 02:28:39;;;;;;;23.27;19.40;;;13.30;99.90;;;;;;5076912;28;20052;-66
2022/05/07 02:31:05;;;;;;;23.35;19.15;;;13.30;99.90;;;;;;5095186;28;20067;-66
2022/05/07 02:33:31;;;;;;;26.80;19.52;;;13.30;99.90;;;;;;5077041;28;20050;-65
2022/05/07 02:35:56;;;;;;;22.08;19.20;;;13.30;99.90;;;;;;5096535;28;20028;-66
2022/05/07 02:38:23;;;;;;;22.00;19.20;;;13.30;99.90;;;;;;5060509;28;20529;-65
2022/05/07 02:43:43;;;;;;;24.88;19.13;;;13.20;99.90;;;;;;5114458;28;20040;-66
2022/05/07 02:46:11;;;;;;;21.77;19.13;;;13.20;99.90;;;;;;5093889;28;20047;-65
2022/05/07 02:48:37;;;;;;;25.35;19.48;;;13.20;99.90;;;;;;5094857;28;20059;-67
2022/05/07 02:51:03;;;;;;;22.42;18.92;;;13.10;99.90;;;;;;5095193;28;20102;-65
2022/05/07 02:53:28;;;;;;;22.40;19.80;;;13.10;99.90;;;;;;5077820;28;20035;-65
2022/05/07 02:55:54;;;;;;;24.70;19.60;;;13.10;99.90;;;;;;5081937;28;20334;-66
2022/05/07 02:58:20;;;;;;;25.65;20.52;;;13.20;99.90;;;;;;5115144;28;20047;-66
2022/05/07 03:00:48;;;;;;;22.73;19.40;;;13.10;99.90;;;;;;5097818;28;20069;-66
2022/05/07 03:03:14;;;;;;;22.48;20.05;;;13.10;99.90;;;;;;5097417;28;20054;-65
2022/05/07 03:05:39;;;;;;;24.23;20.13;;;13.10;99.90;;;;;;5097344;28;20044;-65
2022/05/07 03:08:05;;;;;;;23.33;20.50;;;13.10;99.90;;;;;;5097239;28;20146;-66
2022/05/07 03:10:31;;;;;;;21.85;19.33;;;13.10;99.90;;;;;;5097216;28;20036;-66
2022/05/07 03:12:57;;;;;;;22.25;19.75;;;13.10;99.90;;;;;;5097366;28;20042;-66
2022/05/07 03:15:24;;;;;;;24.85;20.08;;;13.00;99.90;;;;;;5097320;28;20496;-66
2022/05/07 03:17:49;;;;;;;23.02;20.27;;;13.00;99.90;;;;;;5080031;28;20039;-66
2022/05/07 03:20:17;;;;;;;23.05;19.67;;;13.00;99.90;;;;;;5115209;28;20047;-65
2022/05/07 03:22:44;;;;;;;25.40;19.80;;;13.00;99.90;;;;;;5115239;28;20040;-65
2022/05/07 03:25:09;;;;;;;24.02;20.60;;;13.00;99.90;;;;;;5096937;28;20044;-66
2022/05/07 03:27:35;;;;;;;22.90;20.50;;;13.00;99.90;;;;;;5096825;28;20043;-66
2022/05/07 03:30:01;;;;;;;23.15;20.40;;;13.00;99.90;;;;;;5096576;28;20082;-65
2022/05/07 03:32:27;;;;;;;26.77;20.42;;;13.00;99.90;;;;;;5096918;28;20031;-65
2022/05/07 03:34:53;;;;;;;24.95;20.55;;;13.00;99.90;;;;;;5080259;28;20119;-66
2022/05/07 03:37:19;;;;;;;24.17;19.50;;;13.00;99.90;;;;;;5076270;28;20556;-66
2022/05/07 03:39:44;;;;;;;23.83;21.13;;;13.00;99.90;;;;;;5076614;28;20044;-66
2022/05/07 03:42:10;;;;;;;23.75;19.63;;;13.00;99.90;;;;;;5076937;28;20134;-66
2022/05/07 03:44:36;;;;;;;23.23;19.90;;;13.00;99.90;;;;;;5094690;28;20518;-66
2022/05/07 03:47:02;;;;;;;22.27;19.88;;;13.00;99.90;;;;;;5090033;28;20115;-65
2022/05/07 03:49:27;;;;;;;25.40;20.42;;;13.00;99.90;;;;;;5095781;28;20044;-66
2022/05/07 03:54:39;;;;;;;26.98;20.85;;;13.10;99.90;;;;;;5082984;28;20461;-66
2022/05/07 03:57:04;;;;;;;24.77;22.08;;;13.00;99.90;;;;;;5079580;28;20047;-66
2022/05/07 03:59:30;;;;;;;25.67;22.92;;;13.10;99.90;;;;;;5096426;28;20052;-66
2022/05/07 04:01:56;;;;;;;24.73;21.70;;;13.10;99.90;;;;;;5096357;28;20364;-66
2022/05/07 04:04:21;;;;;;;28.65;23.17;;;13.10;99.90;;;;;;5096542;28;20039;-66
2022/05/07 04:06:47;;;;;;;27.52;23.13;;;13.10;99.90;;;;;;5079361;28;20095;-66
2022/05/07 04:09:13;;;;;;;28.50;24.27;;;13.10;99.90;;;;;;5096042;28;20079;-66
2022/05/07 04:11:38;;;;;;;27.13;22.85;;;13.10;99.90;;;;;;5079777;28;20096;-66
2022/05/07 04:14:04;;;;;;;27.50;23.50;;;13.10;99.90;;;;;;5096309;28;20050;-66
2022/05/07 04:16:29;;;;;;;30.33;25.30;;;13.20;99.90;;;;;;5096028;28;20192;-66
2022/05/07 04:18:55;;;;;;;30.83;24.45;;;13.10;99.90;;;;;;5096354;28;20047;-66
2022/05/07 04:21:21;;;;;;;30.83;24.23;;;13.20;99.90;;;;;;5096249;28;20452;-66
2022/05/07 04:23:46;;;;;;;30.13;24.40;;;13.20;99.90;;;;;;5096066;28;20055;-66
2022/05/07 04:26:12;;;;;;;31.60;25.27;;;13.20;99.90;;;;;;5096238;28;20349;-66
2022/05/07 04:28:39;;;;;;;30.27;24.33;;;13.20;99.90;;;;;;5078983;28;20088;-66
2022/05/07 04:31:04;;;;;;;33.22;25.55;;;13.10;99.90;;;;;;5096335;28;20047;-66
2022/05/07 04:33:31;;;;;;;34.15;26.30;;;13.20;99.90;;;;;;5096167;28;20040;-66
2022/05/07 04:35:56;;;;;;;30.13;24.38;;;13.20;99.90;;;;;;5096002;28;20097;-66
2022/05/07 04:38:22;;;;;;;32.53;25.02;;;13.20;99.90;;;;;;5113801;28;20035;-66
2022/05/07 04:40:47;;;;;;;33.50;26.73;;;13.20;99.90;;;;;;5096150;28;20043;-66
2022/05/07 04:43:15;;;;;;;28.20;24.98;;;13.20;99.90;;;;;;5096208;28;20050;-65
2022/05/07 04:45:41;;;;;;;33.25;26.83;;;13.20;99.90;;;;;;5079094;28;20428;-66
2022/05/07 04:48:07;;;;;;;28.70;24.42;;;13.20;99.90;;;;;;5095633;28;20082;-67
2022/05/07 04:50:32;;;;;;;33.33;26.75;;;13.20;99.90;;;;;;5079352;28;20043;-66
2022/05/07 04:52:58;;;;;;;28.77;24.65;;;13.20;99.90;;;;;;5096159;28;20047;-66
2022/05/07 04:55:24;;;;;;;29.20;24.98;;;13.20;99.90;;;;;;5096027;28;20053;-66
2022/05/07 04:57:50;;;;;;;31.02;25.85;;;13.20;99.90;;;;;;5096001;28;20065;-66
2022/05/07 05:00:16;;;;;;;30.50;25.48;;;13.30;99.90;;;;;;5095566;28;20088;-66
2022/05/07 05:02:43;;;;;;;31.30;24.88;;;13.30;99.90;;;;;;5095907;28;20088;-66
2022/05/07 05:05:08;;;;;;;28.15;24.73;;;13.30;99.90;;;;;;5079956;28;20414;-66
2022/05/07 05:07:35;;;;;;;27.35;24.33;;;13.40;99.90;;;;;;5099515;28;20168;-66
2022/05/07 05:10:01;;;;;;;31.55;25.25;;;13.40;99.90;;;;;;5099553;28;20054;-66
2022/05/07 05:12:27;;;;;;;27.70;24.73;;;13.50;99.90;;;;;;5099678;28;20044;-66
2022/05/07 05:15:03;;;;;;;28.98;24.42;;;13.50;99.90;;;;;;5099712;28;20050;-66
2022/05/07 05:17:28;;;;;;;27.40;24.50;;;13.40;99.90;;;;;;5099221;28;20085;-66
2022/05/07 05:19:54;;;;;;;29.95;25.73;;;13.50;99.90;;;;;;5099741;28;20134;-65
2022/05/07 05:22:20;;;;;;;29.83;24.83;;;13.50;99.90;;;;;;5082632;28;20387;-66
2022/05/07 05:24:46;;;;;;;30.80;25.02;;;13.50;99.90;;;;;;5099227;28;20056;-65
2022/05/07 05:27:11;;;;;;;28.95;25.02;;;13.60;99.90;;;;;;5099192;28;20057;-66
2022/05/07 05:29:37;;;;;;;30.50;24.48;;;13.70;99.90;;;;;;5082231;28;20075;-66
2022/05/07 05:32:03;;;;;;;31.75;25.17;;;13.70;99.90;;;;;;5099469;28;20028;-66
2022/05/07 05:34:29;;;;;;;30.85;24.30;;;13.70;99.90;;;;;;5099592;28;20384;-66
2022/05/07 05:36:54;;;;;;;28.05;22.90;;;13.80;99.90;;;;;;5082067;28;20036;-67
2022/05/07 05:39:20;;;;;;;28.02;24.27;;;13.90;99.90;;;;;;5098892;28;20058;-66
2022/05/07 05:41:45;;;;;;;27.70;22.25;;;14.00;99.90;;;;;;5082580;28;20100;-65
2022/05/07 05:44:11;;;;;;;25.88;21.63;;;14.10;99.90;;;;;;5099440;28;20109;-65
2022/05/07 05:46:37;;;;;;;25.70;19.98;;;14.20;99.90;;;;;;5098701;28;20460;-66
2022/05/07 05:49:03;;;;;;;25.77;20.67;;;14.30;99.90;;;;;;5081764;28;20453;-66
2022/05/07 05:51:28;;;;;;;25.58;20.45;;;14.40;99.90;;;;;;5098974;28;20032;-67
2022/05/07 05:53:54;;;;;;;25.77;19.08;;;14.40;99.90;;;;;;5099200;28;20039;-65
2022/05/07 05:56:20;;;;;;;22.00;18.77;;;14.50;99.90;;;;;;5098713;28;20071;-66
2022/05/07 05:58:45;;;;;;;20.83;17.98;;;14.50;99.90;;;;;;5098663;28;20039;-65
2022/05/07 06:01:11;;;;;;;22.60;18.70;;;14.60;99.90;;;;;;5098790;28;20063;-65
2022/05/07 06:03:37;;;;;;;22.65;18.67;;;14.60;99.90;;;;;;5099057;28;20066;-66
2022/05/07 06:06:03;;;;;;;21.67;18.98;;;14.60;99.90;;;;;;5116594;28;20036;-66
2022/05/07 06:08:32;;;;;;;23.05;18.42;;;14.50;99.90;;;;;;5098411;28;20043;-66
2022/05/07 06:10:58;;;;;;;22.02;18.80;;;14.50;99.90;;;;;;5098731;28;20060;-67
2022/05/07 06:13:24;;;;;;;21.55;18.08;;;14.60;99.90;;;;;;5081575;28;20039;-66
2022/05/07 06:15:54;;;;;;;22.45;17.73;;;14.60;99.90;;;;;;5098121;28;20168;-66
2022/05/07 06:18:21;;;;;;;22.15;17.48;;;14.60;99.90;;;;;;5096869;28;20039;-66
2022/05/07 06:20:48;;;;;;;21.88;17.73;;;14.60;99.90;;;;;;5098525;28;20040;-65
2022/05/07 06:23:15;;;;;;;20.95;17.45;;;14.80;99.90;;;;;;5098372;28;20099;-66
2022/05/07 06:28:25;;;;;;;22.00;16.45;;;14.90;99.90;;;;;;5077526;28;20044;-65
2022/05/07 06:30:52;;;;;;;22.48;17.00;;;15.00;99.90;;;;;;5077472;28;20081;-66
2022/05/07 06:33:20;;;;;;;21.50;16.67;;;15.00;99.90;;;;;;5077442;28;20443;-65
2022/05/07 06:35:47;;;;;;;19.65;16.27;;;15.00;99.90;;;;;;5079107;28;20349;-65
2022/05/07 06:38:13;;;;;;;19.60;15.90;;;15.00;99.90;;;;;;5097170;28;20420;-66
2022/05/07 06:40:39;;;;;;;19.95;15.93;;;15.10;99.90;;;;;;5097936;28;20035;-67
2022/05/07 06:43:05;;;;;;;23.65;15.57;;;15.10;99.90;;;;;;5097467;28;20071;-66
2022/05/07 06:45:32;;;;;;;21.70;15.32;;;15.10;99.90;;;;;;5080515;28;20479;-66
2022/05/07 06:47:57;;;;;;;19.42;14.55;;;15.10;99.90;;;;;;5077636;28;20354;-66
2022/05/07 06:50:23;;;;;;;20.00;14.35;;;15.10;99.90;;;;;;5077024;28;20065;-66
2022/05/07 06:52:49;;;;;;;17.55;14.50;;;15.20;99.90;;;;;;5077226;28;20028;-67
2022/05/07 06:55:16;;;;;;;18.95;14.23;;;15.30;99.90;;;;;;5077124;28;20028;-66
2022/05/07 06:57:42;;;;;;;17.60;14.10;;;15.40;99.90;;;;;;5094369;28;20321;-65
2022/05/07 07:00:11;;;;;;;18.30;14.50;;;15.40;99.90;;;;;;5093276;28;20051;-65
2022/05/07 07:02:37;;;;;;;19.33;15.00;;;15.50;99.90;;;;;;5097793;28;20047;-65
2022/05/07 07:05:04;;;;;;;17.63;14.63;;;15.60;99.90;;;;;;5082180;28;20058;-66
2022/05/07 07:07:31;;;;;;;19.48;14.95;;;15.80;99.90;;;;;;5100234;28;20032;-64
2022/05/07 07:09:56;;;;;;;19.27;15.40;;;16.00;99.90;;;;;;5075759;28;20457;-63
2022/05/07 07:12:22;;;;;;;19.40;15.02;;;16.30;99.90;;;;;;5093787;28;20043;-64
2022/05/07 07:14:49;;;;;;;18.58;15.10;;;16.50;99.90;;;;;;5089908;28;20462;-65
2022/05/07 07:17:17;;;;;;;20.52;15.35;;;16.50;99.90;;;;;;5115142;28;20055;-64
2022/05/07 07:19:46;;;;;;;21.13;14.85;;;16.50;99.90;;;;;;5108406;28;20527;-63
2022/05/07 07:22:12;;;;;;;22.52;15.25;;;16.40;99.90;;;;;;5115337;28;20122;-65
2022/05/07 07:24:38;;;;;;;21.80;14.45;;;16.20;99.90;;;;;;5114830;28;20047;-64
2022/05/07 07:27:04;;;;;;;24.00;15.18;;;16.20;99.90;;;;;;5114880;28;20046;-64
2022/05/07 07:29:30;;;;;;;19.98;14.45;;;16.10;99.90;;;;;;5114329;28;20062;-64
2022/05/07 07:31:56;;;;;;;20.90;15.95;;;16.20;99.90;;;;;;5114960;28;20180;-64
2022/05/07 07:34:25;;;;;;;23.08;14.82;;;16.30;99.90;;;;;;5076314;28;21490;-65
2022/05/07 07:36:52;;;;;;;21.58;14.02;;;16.40;99.90;;;;;;5104066;28;20181;-64
2022/05/07 07:39:18;;;;;;;21.42;14.45;;;16.60;99.90;;;;;;5114141;28;20388;-64
2022/05/07 07:41:44;;;;;;;22.73;14.60;;;16.70;99.90;;;;;;5073490;28;20126;-64
2022/05/07 07:44:10;;;;;;;21.98;14.57;;;16.70;99.90;;;;;;5076450;28;20145;-63
2022/05/07 07:49:21;;;;;;;22.25;14.35;;;17.00;99.90;;;;;;5094448;28;20040;-64
2022/05/07 07:51:47;;;;;;;21.88;14.57;;;17.10;99.90;;;;;;5076190;28;20036;-63
2022/05/07 07:54:14;;;;;;;20.25;14.50;;;17.00;99.90;;;;;;5093271;28;20035;-64
2022/05/07 07:56:40;;;;;;;18.52;14.35;;;17.10;99.90;;;;;;5072245;28;20032;-63
2022/05/07 07:59:05;;;;;;;18.30;14.52;;;17.10;99.90;;;;;;5075789;28;20188;-62
2022/05/07 08:01:31;;;;;;;20.85;13.85;;;16.90;99.90;;;;;;5075102;28;20127;-63
2022/05/07 08:03:58;;;;;;;20.40;14.13;;;16.90;99.90;;;;;;5105063;28;20058;-65
2022/05/07 08:06:30;;;;;;;20.48;14.88;;;16.90;99.90;;;;;;5063296;28;20105;-64
2022/05/07 08:11:42;;;;;;;20.98;13.85;;;16.90;99.90;;;;;;5103096;28;20036;-65
2022/05/07 08:14:14;;;;;;;22.05;14.38;;;16.90;99.90;;;;;;5083027;28;20456;-65
2022/05/07 08:16:42;;;;;;;23.80;15.88;;;16.90;99.90;;;;;;5112615;28;20444;-65
2022/05/07 08:19:07;;;;;;;24.60;15.20;;;16.80;99.90;;;;;;5095565;28;20115;-65
2022/05/07 08:21:33;;;;;;;25.83;14.65;;;16.70;99.90;;;;;;5096677;28;20115;-64
2022/05/07 08:23:59;;;;;;;23.83;15.75;;;16.80;99.90;;;;;;5092906;28;20051;-64
2022/05/07 08:26:25;;;;;;;22.52;15.35;;;16.90;99.90;;;;;;5090283;28;20032;-64
2022/05/07 08:28:52;;;;;;;23.73;15.32;;;16.90;99.90;;;;;;5110428;28;20052;-64
2022/05/07 08:31:23;;;;;;;26.40;16.88;;;16.90;99.90;;;;;;5092045;28;20054;-64
2022/05/07 08:33:50;;;;;;;27.65;16.58;;;16.80;99.90;;;;;;5074155;28;20055;-63
2022/05/07 08:36:16;;;;;;;30.17;16.73;;;16.90;99.90;;;;;;5076905;28;20177;-64
2022/05/07 08:38:42;;;;;;;25.27;16.85;;;16.90;99.90;;;;;;5058118;28;20055;-64
2022/05/07 08:41:10;;;;;;;21.42;15.27;;;16.90;99.90;;;;;;5081880;28;20043;-64
2022/05/07 08:43:38;;;;;;;30.52;16.55;;;17.10;99.90;;;;;;5086020;28;20054;-64
2022/05/07 08:46:19;;;;;;;26.90;15.73;;;17.20;99.90;;;;;;5080679;28;20136;-64
2022/05/07 08:48:46;;;;;;;29.58;17.75;;;17.50;99.90;;;;;;5081307;28;20036;-64
2022/05/07 08:51:17;;;;;;;28.40;17.10;;;17.70;99.90;;;;;;5065148;28;20740;-65
2022/05/07 08:53:49;;;;;;;30.38;16.00;;;18.10;99.90;;;;;;5088604;28;20047;-65
2022/05/07 08:56:17;;;;;;;31.50;17.98;;;18.20;99.90;;;;;;5111293;28;20050;-65
2022/05/07 08:58:47;;;;;;;30.20;17.75;;;18.40;99.90;;;;;;5082810;28;20047;-64
2022/05/07 09:01:12;;;;;;;29.58;18.25;;;18.50;99.90;;;;;;5117906;28;20043;-65
2022/05/07 09:03:43;;;;;;;28.42;17.92;;;18.50;99.90;;;;;;5099715;28;20039;-65
2022/05/07 09:06:26;;;;;;;32.13;17.88;;;18.70;99.90;;;;;;5110185;28;20119;-65
2022/05/07 09:08:54;;;;;;;34.03;19.02;;;18.90;99.90;;;;;;5082231;28;20467;-65
2022/05/07 09:11:20;;;;;;;31.40;18.90;;;19.00;99.90;;;;;;5099526;28;20044;-66
2022/05/07 09:14:06;;;;;;;29.30;18.77;;;19.10;99.90;;;;;;5099821;28;20036;-65
2022/05/07 09:16:42;;;;;;;28.85;17.92;;;19.10;99.90;;;;;;5116889;28;20375;-65
2022/05/07 09:19:22;;;;;;;29.52;19.10;;;19.20;99.90;;;;;;5099169;28;20154;-65
2022/05/07 09:21:48;;;;;;;28.48;17.85;;;19.30;99.90;;;;;;5099364;28;20039;-65
2022/05/07 09:24:14;;;;;;;27.45;18.63;;;19.80;99.90;;;;;;5082380;28;20063;-65
2022/05/07 09:26:43;;;;;;;30.05;18.88;;;19.70;99.90;;;;;;5099086;28;20518;-65
2022/05/07 09:29:16;;;;;;;27.42;18.50;;;19.70;99.90;;;;;;5081785;28;20394;-65
2022/05/07 09:31:43;;;;;;;27.70;18.38;;;19.70;99.90;;;;;;5117452;28;20074;-65
2022/05/07 09:36:59;;;;;;;32.15;19.50;;;19.90;99.90;;;;;;5098941;28;20040;-65
2022/05/07 09:39:38;;;;;;;35.45;20.15;;;19.80;99.90;;;;;;5098577;28;20055;-65
2022/05/07 09:42:07;;;;;;;27.92;19.65;;;19.60;99.90;;;;;;5116891;28;20376;-63
2022/05/07 09:44:33;;;;;;;32.75;19.40;;;19.60;99.90;;;;;;5098851;28;20036;-64
2022/05/07 09:46:59;;;;;;;29.55;19.77;;;19.60;99.90;;;;;;5116378;28;20368;-64
2022/05/07 09:49:27;;;;;;;30.10;20.02;;;19.50;99.90;;;;;;5116505;28;20039;-64
2022/05/07 09:51:53;;;;;;;31.10;20.17;;;19.50;99.90;;;;;;5098344;28;20100;-64
2022/05/07 09:59:51;;;;;;;33.38;22.23;;;19.30;99.90;;;;;;5106227;28;20123;-64
2022/05/07 10:02:38;;;;;;;40.70;23.45;;;19.30;99.90;;;;;;5078406;28;20054;-64
2022/05/07 10:05:15;;;;;;;31.75;22.92;;;19.60;99.90;;;;;;5078380;28;20051;-64
2022/05/07 10:08:21;;;;;;;38.25;23.45;;;19.60;99.90;;;;;;5111722;28;20413;-64
2022/05/07 10:10:50;;;;;;;31.40;22.85;;;19.50;99.90;;;;;;5116735;28;20058;-64
2022/05/07 10:13:17;;;;;;;33.72;23.52;;;19.50;99.90;;;;;;5116012;28;20460;-64
2022/05/07 10:15:57;;;;;;;33.00;24.23;;;19.40;99.90;;;;;;5109895;28;20169;-65
2022/05/07 10:18:38;;;;;;;36.45;25.63;;;19.30;99.90;;;;;;5113660;28;20058;-64
2022/05/07 10:21:12;;;;;;;37.00;24.65;;;19.20;99.90;;;;;;5081214;28;20047;-64
2022/05/07 10:23:55;;;;;;;35.38;23.83;;;19.20;99.90;;;;;;5076457;28;20060;-62
2022/05/07 10:26:36;;;;;;;31.88;23.00;;;19.30;99.90;;;;;;5080611;28;20042;-63
2022/05/07 10:29:03;;;;;;;32.25;22.58;;;19.20;99.90;;;;;;5095995;28;20475;-65
2022/05/07 10:31:29;;;;;;;30.08;22.67;;;19.10;99.90;;;;;;5093926;28;20047;-64
2022/05/07 10:33:56;;;;;;;32.33;22.42;;;19.10;99.90;;;;;;5079755;28;20039;-63
2022/05/07 10:36:35;;;;;;;28.63;21.48;;;19.10;99.90;;;;;;5100201;28;20040;-65
2022/05/07 10:39:07;;;;;;;33.92;23.00;;;19.20;99.90;;;;;;5115565;28;20054;-64
2022/05/07 10:42:27;;;;;;;29.48;22.05;;;19.30;99.90;;;;;;5097849;28;20471;-65
2022/05/07 10:44:53;;;;;;;27.15;20.60;;;19.30;99.90;;;;;;5097320;28;20039;-65
2022/05/07 10:47:19;;;;;;;24.10;18.20;;;19.10;99.90;;;;;;5089404;28;20066;-64
2022/05/07 10:50:06;;;;;;;25.25;18.67;;;19.10;99.90;;;;;;5097308;28;20437;-65
2022/05/07 10:52:34;;;;;;;27.08;19.20;;;19.30;99.90;;;;;;5096851;28;20035;-64
2022/05/07 10:55:11;;;;;;;27.88;19.75;;;19.50;99.90;;;;;;5096526;28;20042;-65
2022/05/07 10:57:42;;;;;;;24.40;18.67;;;19.60;99.90;;;;;;5096368;28;20465;-65
2022/05/07 11:00:17;;;;;;;26.55;20.20;;;19.70;99.90;;;;;;5096751;28;20051;-65
2022/05/07 11:02:43;;;;;;;27.85;20.88;;;19.80;99.90;;;;;;5095985;28;20043;-65
2022/05/07 11:05:11;;;;;;;25.80;22.13;;;19.70;99.90;;;;;;5114940;28;20039;-65
2022/05/07 11:07:37;;;;;;;25.30;21.63;;;19.90;99.90;;;;;;5096027;28;20375;-65
2022/05/07 11:10:04;;;;;;;27.48;21.80;;;19.90;99.90;;;;;;5114729;28;20062;-65
2022/05/07 11:12:30;;;;;;;29.17;22.35;;;20.00;99.90;;;;;;5096873;28;20454;-65
2022/05/07 11:14:56;;;;;;;25.25;20.13;;;20.10;99.90;;;;;;5097555;28;20462;-65
2022/05/07 11:17:36;;;;;;;30.70;22.58;;;20.20;99.90;;;;;;5096438;28;20040;-66
2022/05/07 11:20:03;;;;;;;26.45;20.10;;;20.50;99.90;;;;;;5115108;28;20472;-66
2022/05/07 11:22:30;;;;;;;25.48;21.35;;;20.70;99.90;;;;;;5097147;28;20047;-65
2022/05/07 11:24:57;;;;;;;27.27;21.30;;;20.80;99.90;;;;;;5115352;28;20070;-65
2022/05/07 11:27:26;;;;;;;26.13;21.48;;;21.00;99.90;;;;;;5096227;28;20520;-66
2022/05/07 11:29:53;;;;;;;25.23;21.67;;;21.00;99.90;;;;;;5096719;28;20048;-66
2022/05/07 11:32:19;;;;;;;22.05;19.20;;;20.90;99.90;;;;;;5096789;28;20110;-65
2022/05/07 11:34:45;;;;;;;23.77;18.70;;;20.80;99.90;;;;;;5097270;28;20356;-65
2022/05/07 11:37:23;;;;;;;22.58;18.83;;;20.80;99.90;;;;;;5114916;28;20433;-66
2022/05/07 11:39:59;;;;;;;21.85;18.08;;;21.00;99.90;;;;;;5097085;28;20101;-65
2022/05/07 11:42:47;;;;;;;20.73;17.60;;;21.00;99.90;;;;;;5096815;28;20050;-65
2022/05/07 11:45:30;;;;;;;23.40;19.35;;;21.00;99.90;;;;;;5097225;28;20099;-65
2022/05/07 11:48:07;;;;;;;24.30;19.13;;;21.30;99.90;;;;;;5095885;28;20043;-65
2022/05/07 11:50:42;;;;;;;24.00;20.25;;;21.30;99.90;;;;;;5096603;28;20118;-65
2022/05/07 11:53:15;;;;;;;24.35;20.02;;;21.30;99.90;;;;;;5096709;28;20061;-66
2022/05/07 11:55:42;;;;;;;24.75;20.35;;;21.30;99.90;;;;;;5096998;28;20391;-68
2022/05/07 11:58:26;;;;;;;23.33;18.70;;;21.40;99.90;;;;;;5095647;28;20105;-65
2022/05/07 12:00:55;;;;;;;30.63;24.85;;;21.40;99.90;;;;;;5114800;28;20043;-65
2022/05/07 12:03:25;;;;;;;31.42;24.55;;;21.20;99.90;;;;;;5079597;28;20411;-65
2022/05/07 12:05:53;;;;;;;30.27;24.67;;;21.30;99.90;;;;;;5096405;28;20130;-65
2022/05/07 12:08:23;;;;;;;34.13;23.58;;;21.30;99.90;;;;;;5113588;28;20113;-65
2022/05/07 12:10:53;;;;;;;31.95;25.30;;;21.50;99.90;;;;;;5114277;28;20043;-67
2022/05/07 12:13:20;;;;;;;30.52;23.95;;;22.00;99.90;;;;;;5113833;28;20123;-66
2022/05/07 12:18:30;;;;;;;30.52;25.45;;;22.40;99.90;;;;;;5074660;28;20534;-66
2022/05/07 12:20:57;;;;;;;33.83;25.63;;;22.00;99.90;;;;;;5074986;28;20044;-66
2022/05/07 12:31:35;;;;;;;30.42;23.17;;;21.10;99.90;;;;;;5096367;28;20050;-66
2022/05/07 12:34:02;;;;;;;28.38;21.90;;;21.10;99.90;;;;;;5096368;28;20043;-66
2022/05/07 12:36:28;;;;;;;31.23;22.58;;;21.30;99.90;;;;;;5095907;28;20075;-67
2022/05/07 12:38:54;;;;;;;28.63;20.63;;;21.40;99.90;;;;;;5095904;28;20071;-66
2022/05/07 12:41:20;;;;;;;27.05;21.27;;;21.70;99.90;;;;;;5096207;28;20379;-65
2022/05/07 12:43:46;;;;;;;24.42;19.85;;;21.80;99.90;;;;;;5096018;28;20119;-66
2022/05/07 12:46:11;;;;;;;28.27;19.40;;;21.90;99.90;;;;;;5095879;28;20130;-67
2022/05/07 12:48:38;;;;;;;26.50;20.02;;;21.90;99.90;;;;;;5078899;28;20131;-67
2022/05/07 12:51:03;;;;;;;24.80;19.13;;;21.70;99.90;;;;;;5079255;28;20376;-67
2022/05/07 12:53:29;;;;;;;24.42;16.98;;;21.80;99.90;;;;;;5096039;28;20035;-66
2022/05/07 12:55:55;;;;;;;29.85;18.92;;;21.80;99.90;;;;;;5096113;28;20031;-66
2022/05/07 12:58:20;;;;;;;26.90;19.90;;;21.60;99.90;;;;;;5095587;28;20452;-67
2022/05/07 13:00:46;;;;;;;31.88;22.23;;;21.20;99.90;;;;;;5095801;28;20474;-66
2022/05/07 13:03:11;;;;;;;27.73;21.08;;;21.20;99.90;;;;;;5095917;28;20054;-67
2022/05/07 13:05:38;;;;;;;25.50;19.73;;;21.10;99.90;;;;;;5096061;28;20444;-67
2022/05/07 13:08:05;;;;;;;25.95;19.13;;;21.10;99.90;;;;;;5095055;28;20052;-66
2022/05/07 13:10:32;;;;;;;27.20;20.48;;;21.10;99.90;;;;;;5095991;28;20262;-66
2022/05/07 13:12:59;;;;;;;26.45;19.88;;;21.00;99.90;;;;;;5095750;28;20523;-67